Mullen, Jess
United StatesWomanBorn 19752007 – 2026Runner id 30574
Events
180
173 race dates
Best pace
11.249
km/h · 2024
Best finish
2nd
of 211 · 2024
Distance raced
22,698
km · splits not double-counted
Pace over time
179 of 180 results · km/h
Pace over time: 177 races and 2 splits from 2007 to 2026, ranging from 2.08 to 12.37 kilometres per hour, where higher is faster. A second, age-graded series is drawn above it; the gap between the two is the age credit.
- Actual pace
- Age-graded pace
- Split of a race already plotted
1 result is not on this chart. They are counted in every statistic above and listed in full below — backyard ultras carry a lap count instead of a pace, which is the number that means something in that format.
Results
| Date | Event | Distance | Result | Pace km/h | Placing |
|---|---|---|---|---|---|
| 2007-02-03 | Pigtails Run 50KUnited States | 50km | 5:12:58 h | 9.586 | 26/44 |
| 2007-03-17 | Chuckanut 50KUnited States | 50km | 6:12:31 h | 8.053 | 135/260 |
| 2007-04-22 | 50mi | 8:58:56 h | 8.958 | 28/54 | |
| 2007-05-27 | 50km | 5:54:28 h | 8.463 | 17/30 | |
| 2007-07-28 | 50mi | 10:46:40 h | 7.466 | 86/144 | |
| 2007-08-18 | 100km | 15:59:31 h | 6.253 | 60/81 | |
| 2007-09-15 | 50km | 7:06:48 h | 7.029 | 43/86 | |
| 2007-10-06 | Endurance Challenge - Washington D.C. Trail 50 kmUnited States | 50km | 7:11:57 h | 6.945 | 39/75 |
| 2007-12-22 | 50km | 5:21:54 h | 9.320 | 25/42 | |
| 2008-01-12 | Bridle Trails Winter Running FestivalUnited States | 50km | 5:57:33 h | 8.390 | 32/44 |
| 2008-01-26 | Pigtails Run 50KUnited States | 50km | 5:16:21 h | 9.483 | 26/49 |
| 2008-01-27 | Cedar River Yours TrulyUnited States | 50km | 5:38:00 h | 8.876 | 2/13 |
| 2008-02-03 | Lord Hill Trail RunUnited States | 50km | 6:19:00 h | 7.916 | 19/30 |
| 2008-02-23 | 50km | 5:59:46 h | 8.339 | 84/123 | |
| 2008-02-24 | Cedar River Yours TrulyUnited States | 50km | 5:30:15 h | 9.084 | 8/15 |
| 2008-03-15 | 24h | 50.000 km | 2.083 | 42/43 | |
| 2008-03-15 | Chuckanut 50KUnited States | 50km | 6:11:02 h | 8.086 | 149/294 |
| 2008-04-26 | 50mi | 12:04:41 h | 6.662 | 36/37 | |
| 2008-05-17 | Watershed Preserve 12 Hr Trail RaceUnited States | 12h | 81.336 km | 6.778 | 23/53 |
| 2008-05-25 | 50km | 6:04:52 h | 8.222 | 34/72 | |
| 2008-06-07 | 100mi | 27:43:00 h | 5.806 | 23/43 | |
| 2008-10-20 | Baker Lake 50K Ultra Trail RunUnited States | 50km | 6:24:39 h | 7.799 | 37/86 |
| 2008-11-15 | 50km | 5:21:23 h | 9.335 | 14/35 | |
| 2009-01-24 | Pigtails Run 50KUnited States | 50km | 5:41:00 h | 8.798 | 32/49 |
| 2009-03-21 | 24h | 78.858 km | 3.286 | 36/49 | |
| 2009-03-21 | Chuckanut 50KUnited States | 50km | 6:22:38 h | 7.840 | 178/270 |
| 2009-04-10 | 100mi | 28:27:22 h | 5.656 | 8/28 | |
| 2009-05-02 | 100km | 13:42:28 h | 7.295 | 161/260 | |
| 2009-05-16 | Watershed Preserve 12 Hr Trail RaceUnited States | 12h | 51.901 km | 4.325 | 52/66 |
| 2009-05-24 | 50km | 5:46:27 h | 8.659 | 45/67 | |
| 2009-06-06 | 100mi | 25:34:35 h | 6.292 | 39/82 | |
| 2009-06-20 | The 20th Century 50K Trail RunUnited States | 50km | 5:20:28 h | 9.361 | 10/17 |
| 2009-07-25 | 50mi | 11:06:16 h | 7.246 | 105/166 | |
| 2009-08-08 | 50mi | 10:21:31 h | 7.768 | 27/63 | |
| 2009-09-26 | 100mi | 22:33:42 h | 7.133 | 28/87 | |
| 2010-01-24 | Cedar River Yours TrulyUnited States | 50km | 4:52:22 h | 10.261 | 1/15 |
| 2010-02-06 | 100mi | 22:36:05 h | 7.121 | 56/216 | |
| 2010-03-07 | Lord Hill Trail RunUnited States | 50km | 6:47:06 h | 7.369 | 12/21 |
| 2010-03-20 | 24h | 186.683 km | 7.778 | 2/73 | |
| 2010-05-06 | 100mi | 35:18:00 h | 4.559 | 5/5 | |
| 2010-06-12 | 100mi | 24:18:36 h | 6.620 | 26/90 | |
| 2010-08-21 | 100km | 14:10:15 h | 7.057 | 53/107 | |
| 2010-09-18 | 100mi | 27:34:13 h | 5.837 | 34/72 | |
| 2010-11-06 | 100mi | 19:21:50 h | 8.311 | 11/132 | |
| 2011-01-29 | Cedar River Yours TrulyUnited States | 50km | 4:58:29 h | 10.051 | 7/16 |
| 2011-03-19 | 24h | 80.467 km | 3.353 | 38/67 | |
| 2011-04-09 | 50mi | 8:56:17 h | 9.003 | 127/600 | |
| 2011-05-14 | 100mi | 24:09:59 h | 6.659 | 16/45 | |
| 2011-07-11 | 135mi | 37:20:12 h | 5.819 | 36/81 | |
| 2011-08-27 | 100mi | 25:54:12 h | 6.213 | 33/106 | |
| 2011-09-17 | 50km | 6:49:41 h | 7.323 | 32/80 | |
| 2011-10-01 | Echo Valley 50 Mile Trail RunUnited States | 50mi | 8:43:09 h | 9.229 | 2/10 |
| 2011-10-29 | 12h | 86.470 km | 7.206 | 3/27 | |
| 2011-11-12 | 100mi | 21:57:31 h | 7.329 | 34/174 | |
| 2011-12-31 | 24h | 153.676 km | 6.403 | 10/38 | |
| 2012-05-12 | 50km | 7:10:16 h | 6.972 | 25/48 | |
| 2012-05-19 | 12h | 73.836 km | 6.153 | 30/60 | |
| 2012-12-15 | 50km | 5:19:19 h | 9.395 | 24/43 | |
| 2013-02-02 | 100mi | 22:23:24 h | 7.188 | 56/229 | |
| 2013-05-18 | 100mi | 28:50:53 h | 5.579 | 49/151 | |
| 2013-08-24 | 100mi | 25:10:27 h | 6.393 | 33/117 | |
| 2013-09-14 | 100mi | 35:36:00 h | 4.521 | 13/13 | |
| 2013-10-05 | 100km | 14:37:13 h | 6.840 | 16/30 | |
| 2013-11-02 | 100mi | 24:38:30 h | 6.531 | 40/164 | |
| 2014-01-18 | 34mi | 6:30:57 h | 8.398 | 23/56 | |
| 2014-03-30 | 100km | 13:41:13 h | 7.306 | 29/61 | |
| 2014-04-12 | 50mi | 10:48:26 h | 7.446 | 182/301 | |
| 2014-04-13 | 50km | 6:32:42 h | 7.639 | 44/58 | |
| 2014-04-20 | 50km | 7:36:38 h | 6.570 | 53/107 | |
| 2014-05-10 | 50km | 7:25:22 h | 6.736 | 22/44 | |
| 2014-05-18 | 50mi | 9:27:33 h | 8.507 | 42/106 | |
| 2014-06-14 | 100mi | 31:37:55 h | 5.088 | 55/89 | |
| 2014-07-26 | 50mi | 12:56:47 h | 6.215 | 211/248 | |
| 2014-08-23 | Cascade Crest Classic 100 MileUnited States | 100mi | 23:59:39 h | 6.707 | 35/105 |
| 2014-10-19 | 50km | 4:46:03 h | 10.488 | 2/21 | |
| 2014-11-08 | 100mi | 20:41:47 h | 7.776 | 11/108 | |
| 2014-12-14 | 50km | 5:25:25 h | 9.219 | 56/229 | |
| 2015-01-17 | 50km | 5:37:18 h | 8.894 | 8/78 | |
| 2015-04-18 | 50km | 7:37:00 h | 6.565 | 61/152 | |
| 2015-05-30 | 100mi | 23:15:17 h | 6.921 | 3/14 | |
| 2016-01-23 | 100mi | 23:35:36 h | 6.821 | 8/32 | |
| 2016-02-06 | Sean O'Brien 50 Mile Trail RaceUnited States | 50mi | 10:54:17 h | 7.379 | 21/62 |
| 2016-03-25 | 100mi | 23:02:11 h | 6.986 | 7/26 | |
| 2016-06-03 | 100mi | 29:56:05 h | 5.376 | 97/137 | |
| 2016-07-30 | 50mi | 10:10:04 h | 7.914 | 81/262 | |
| 2016-08-27 | 100mi | 23:52:30 h | 6.741 | 20/127 | |
| 2016-10-22 | 100mi | 28:42:21 h | 5.606 | 4/22 | |
| 2017-02-18 | 60km | 7:37:27 h | 7.870 | 31/110 | |
| 2017-03-24 | 100mi | 22:32:29 h | 7.140 | 8/43 | |
| 2017-05-13 | 50mi | 10:35:47 h | 7.594 | 9/30 | |
| 2017-06-24 | 100mi | 26:39:52 h | 6.036 | 108/248 | |
| 2017-08-05 | 50km | 8:09:26 h | 6.130 | 35/179 | |
| 2017-08-26 | 100mi | 24:42:36 h | 6.513 | 15/110 | |
| 2017-09-23 | 100mi | 22:12:54 h | 7.244 | 8/34 | |
| 2017-12-16 | 50km | 4:49:32 h | 10.362 | 13/27 | |
| 2018-03-30 | 100mi | 22:42:55 h | 7.085 | 13/58 | |
| 2018-05-18 | 106mi | 32:20:46 h | 5.274 | 19/100 | |
| 2018-07-21 | 50mi | 12:56:38 h | 6.217 | 67/172 | |
| 2018-08-04 | 100mi | 29:30:49 h | 5.453 | 46/100 | |
| 2018-08-25 | 100mi | 26:17:47 h | 6.120 | 44/147 | |
| 2018-10-18 | 48h | 183.465 km | 3.822 | 1/4 | |
| 2018-11-30 | Grandpa's Wishbone 50km RunUnited States | 31.4mi | 5:05:47 h | 9.916 | 4/6 |
| 2018-12-01 | Ghost of Seattle MarathonUnited States | 50km | 5:10:19 h | 9.668 | 5/12 |
| 2018-12-30 | 48h | 270.319 km | 5.632 | 2/98 | |
| 2019-01-19 | 100mi | 24:25:09 h | 6.590 | 12/33 | |
| 2019-03-16 | 24h | 177.027 km | 7.376 | 2/78 | |
| 2019-03-29 | 100mi | 23:01:18 h | 6.991 | 26/83 | |
| 2019-04-27 | 50mi | 10:25:11 h | 7.723 | 14/47 | |
| 2019-05-17 | 100mi | 21:34:58 h | 7.457 | 2/70 | |
| 2019-06-29 | 100mi | 24:10:00 h | 6.659 | 3/8 | |
| 2019-08-03 | 50km | 7:05:54 h | 7.044 | 24/56 | |
| 2019-08-09 | 40mi | 10:38:16 h | 6.051 | 17/95 | |
| 2019-08-24 | 100mi | 27:46:13 h | 5.795 | 56/128 | |
| 2019-09-14 | 106mi | 30:42:27 h | 5.555 | 37/77 | |
| 2019-09-21 | 32h | 225.951 km | 7.061 | 1/23 | |
| 2019-09-26 | 48h | 115.872 km | 2.414 | 4/4 | |
| 2019-11-30 | Ghost of Seattle MarathonUnited States | 50km | 5:47:21 h | 8.637 | 12/19 |
| 2019-12-28 | 10d | 1001.613 km | 4.173 | 4/55 | |
| 2019-12-28 | Across the Years, 10 days - 6d SplitUnited StatesIAU BronzeSplit of the race above; not counted again in the distance total*Seattle, WA | 6d | 660.997 km | 4.590 | 3/51 |
| 2019-12-28 | Across the Years, 10 days - 1000km SplitUnited StatesIAU BronzeSplit of the race above; not counted again in the distance total*Seattle, WA | 1000km | 9d 23:33:16 h | 4.174 | 4/5 |
| 2020-02-02 | 50km | 4:51:00 h | 10.309 | 9/20 | |
| 2020-02-14 | 48h | 265.541 km | 5.532 | 3/75 | |
| 2020-10-24 | 100mi | 21:31:00 h | 7.480 | 4/45 | |
| 2020-10-31 | 100mi | 22:57:36 h | 7.009 | 40/160 | |
| 2021-01-16 | 100mi | 25:58:46 h | 6.195 | 20/48 | |
| 2021-02-20 | 102mi | 24:37:50 h | 6.665 | 3/14 | |
| 2021-03-26 | 100mi | 24:19:32 h | 6.616 | 21/71 | |
| 2021-03-26 | 50km | 9:13:05 h | 5.424 | 100/109 | |
| 2021-04-09 | 100mi | 23:17:52 h | 6.908 | 6/26 | |
| 2021-04-24 | 54km | 7:55:47 h | 6.810 | 20/25 | |
| 2021-05-10 | 6d | 698.455 km | 4.850 | 2/46 | |
| 2021-06-26 | 100mi | 28:27:28 h | 5.655 | 5/7 | |
| 2021-08-14 | 32h | 225.951 km | 7.061 | 1/23 | |
| 2021-09-05 | 13h | 106.570 km | 8.198 | 1/15 | |
| 2021-09-18 | 24h | 175.740 km | 7.323 | 1/26 | |
| 2021-10-07 | 48h | 222.089 km | 4.627 | 3/31 | |
| 2022-08-13 | 12h | 62.764 km | 5.230 | 12/19 | |
| 2022-08-27 | 100mi | 26:16:08 h | 6.126 | 45/130 | |
| 2022-09-16 | 29h | 194.474 km | 29laps | 1/42 | |
| 2022-10-08 | 100mi | 19:21:05 h | 8.316 | 17/115 | |
| 2022-12-02 | 48h | 252.827 km | 5.267 | 3/32 | |
| 2022-12-28 | 48h | 161.874 km | 3.372 | 29/76 | |
| 2022-12-31 | 24h | 177.050 km | 7.377 | 8/132 | |
| 2023-03-24 | 100mi | 24:09:49 h | 6.660 | 19/65 | |
| 2023-06-02 | 100mi | 29:46:55 h | 5.404 | 71/117 | |
| 2023-06-23 | 100mi | 21:46:11 h | 7.393 | 11/62 | |
| 2023-08-12 | 24h | 167.371 km | 6.974 | 2/26 | |
| 2023-09-09 | 100mi | 26:39:07 h | 6.038 | 3/9 | |
| 2023-10-21 | 100mi | 21:40:21 h | 7.426 | 6/36 | |
| 2023-12-09 | 100mi | 22:32:52 h | 7.137 | 25/104 | |
| 2024-01-19 | 34h | 197.144 km | 5.798 | 2/211 | |
| 2024-02-17 | Woolley Trail Runs 50kUnited States | 50km | 4:26:41 h | 11.249 | 1/10 |
| 2024-02-24 | Silver Moon 100 Mile Race - Paso RoblesUnited States | 100mi | 21:05:05 h | 7.633 | 3/17 |
| 2024-03-22 | 100mi | 23:53:02 h | 6.738 | 14/54 | |
| 2024-04-05 | 100mi | 24:17:31 h | 6.625 | 3/25 | |
| 2024-04-21 | 50km | 5:01:07 h | 9.963 | 8/40 | |
| 2024-05-16 | 3 Days at the Fair 72 Hour RaceUnited States | 72h | 325.087 km | 4.515 | 6/48 |
| 2024-06-08 | 12h | 84.490 km | 7.041 | 11/23 | |
| 2024-06-28 | 100mi | 18:51:46 h | 8.532 | 7/64 | |
| 2024-08-03 | 24h | 179.924 km | 7.497 | 1/24 | |
| 2024-09-07 | 100mi | 19:03:54 h | 8.441 | 5/43 | |
| 2024-09-21 | 100mi | 19:50:48 h | 8.109 | 3/29 | |
| 2024-10-26 | Fall Freakin Fun RuUnited States | 50km | 5:06:33 h | 9.786 | 1/3 |
| 2024-11-08 | 100mi | 20:35:29 h | 7.816 | 6/101 | |
| 2024-11-30 | Ghost of Seattle MarathonUnited States | 50km | 5:35:53 h | 8.932 | 5/17 |
| 2024-12-28 | 100mi | 25:34:28 h | 6.293 | 21/100 | |
| 2024-12-28 | 24h | 160.956 km | 6.707 | 13/113 | |
| 2025-02-14 | 100mi | 19:29:33 h | 8.256 | 8/19 | |
| 2025-03-21 | 100mi | 25:56:40 h | 6.203 | 18/45 | |
| 2025-04-12 | Silver Moon Race 100 Mile RaceUnited States | 100mi | 22:24:51 h | 7.180 | 2/23 |
| 2025-04-26 | 100mi | 21:55:38 h | 7.339 | 29/117 | |
| 2025-05-25 | Pigtails Challenge 50 KmUnited States | 50km | 6:36:02 h | 7.575 | 19/28 |
| 2025-06-07 | 100mi | 21:27:00 h | 7.503 | 8/21 | |
| 2025-06-27 | 100mi | 18:37:18 h | 8.642 | 5/55 | |
| 2025-08-15 | 100mi | 22:14:42 h | 7.235 | 8/60 | |
| 2025-08-28 | 100mi | 22:03:29 h | 7.296 | 1/21 | |
| 2025-09-20 | 100mi | 21:58:16 h | 7.325 | 12/33 | |
| 2026-03-28 | 55km | 7:09:49 h | 7.678 | 30/84 | |
| 2026-04-11 | 50km | 7:20:02 h | 6.818 | 109/218 | |
| 2026-05-24 | 50km | 6:19:11 h | 7.912 | 4/15 |